Pagrindinis puslapis
METAR-TAF:

METAR-TAF

Oro uostai :

Le Tontutos tarptautinis oro uostas

Numėja La Tontouta, Naujoji Kaledonija

platuma: 22-01S, ilguma: 166-13E, Aukštis: 16 m

Dabartinis oras

Ataskaita buvo paskelbta 20 minutes, ne 05:30 UTC
Vėjas 6 kt iš Pietų/Pietryčių, svyruoja nuo Pietryčių ir Pietų
Temperatūra 22°C
Drėgmė 69%
Slėgis 1017 hPa
Matomumas 10 km arba daugiau
nėra debesų žemiau 1500 m ir nėra kamuolinių lietaus debesų

METAR: NWWW 220530Z AUTO 16006KT 130V190 CAVOK 22/16 Q1017 TEMPO SHRA

Laikas: 16:50 (05:50 UTC)

Prognozė

Ataskaita buvo paskelbta 50 minutes, ne 05:00 UTC
Prognozė galioja nuo 22 metu 06 UTC su 23 metu 06 UTC
Vėjas 2 kt nuo kintamojo kryptimis
Matomumas 10 km arba daugiau
Mažai debesys ne aukštis 2000 ft
Tikimybė 40% :
Laikinai
nuo 22 metu 06 UTC su 22 metu 21 UTC
lietus

TAF: NWWW 220500Z 2206/2306 VRB02KT 9999 FEW020 PROB40 TEMPO 2206/2221 SHRA

Orai ataskaitas ir orų prognozės (METAR, TAF).

turimą stotys yra geltonos ir raudonos taškus žemėlapyje.

Perkelti pele per norėdami pamatyti stoties vardą.

Tada spustelėkite, norėdami matyti oro stebėjimo ir prognozės.

Norėdami pakeisti žemėlapį: spustelėkite ant žalios mygtukų su juodo kryžiaus žemyn,; žalią mygtuką su brūkšneliu, jei norite nutolinti; arba žalių rodyklių gretimoms žemėlapius.


METAR-TAF: